Aviation Digital Data Service (ADDS)

Output produced by TAFs form (0947 UTC 27 May 2015)
found at http://www.aviationweather.gov/adds/tafs/
 
KRIC 270811Z 2708/2806 19009KT P6SM SCT025 
     FM271000 20010KT P6SM BKN025 
     FM271300 20011KT P6SM BKN040 
     FM272300 18006KT P6SM SCT040 BKN250